createdAt,value
2024-01-10T00:00:41.739Z,1017.3
2024-01-10T00:01:57.861Z,1017.3
2024-01-10T00:03:13.734Z,1017.3
2024-01-10T00:04:29.692Z,1017.3
2024-01-10T00:05:45.793Z,1017.3
2024-01-10T00:07:01.767Z,1017.2
2024-01-10T00:08:17.755Z,1017.2
2024-01-10T00:09:34.384Z,1017.1
2024-01-10T00:10:50.767Z,1017.1
2024-01-10T00:12:06.806Z,1017.1
2024-01-10T00:13:22.694Z,1017.1
2024-01-10T00:14:38.875Z,1017
2024-01-10T00:15:54.721Z,1017
2024-01-10T00:17:10.803Z,1017
2024-01-10T00:18:26.918Z,1017
2024-01-10T00:19:42.769Z,1017
2024-01-10T00:20:58.750Z,1017.1
2024-01-10T00:22:14.721Z,1017.1
2024-01-10T00:23:30.737Z,1017.1
2024-01-10T00:24:46.734Z,1017.2
2024-01-10T00:26:02.824Z,1017.1
2024-01-10T00:27:18.774Z,1017.1
2024-01-10T00:28:34.823Z,1017.1
2024-01-10T00:29:50.780Z,1017.1
2024-01-10T00:31:06.790Z,1017.1
2024-01-10T00:32:22.863Z,1017.1
2024-01-10T00:33:38.790Z,1017.1
2024-01-10T00:34:54.779Z,1017.1
2024-01-10T00:36:10.777Z,1017.1
2024-01-10T00:37:26.767Z,1017.1
2024-01-10T00:38:42.780Z,1017.1
2024-01-10T00:39:58.798Z,1017.2
2024-01-10T00:41:14.814Z,1017.1
2024-01-10T00:42:30.749Z,1017
2024-01-10T00:43:46.795Z,1016.9
2024-01-10T00:45:02.870Z,1016.9
2024-01-10T00:46:18.763Z,1017
2024-01-10T00:47:34.771Z,1017
2024-01-10T00:48:50.846Z,1017
2024-01-10T00:50:06.959Z,1017.1
2024-01-10T00:51:22.758Z,1017.1
2024-01-10T00:52:38.828Z,1017.1
2024-01-10T00:53:54.851Z,1017.1
2024-01-10T00:55:11.140Z,1017.1
2024-01-10T00:56:27.827Z,1017.1
2024-01-10T00:57:43.775Z,1017.1
2024-01-10T00:58:59.808Z,1017.1
2024-01-10T01:00:15.756Z,1017.1
2024-01-10T01:01:31.784Z,1017.1
2024-01-10T01:02:47.823Z,1017.1
2024-01-10T01:04:04.932Z,1017.1
2024-01-10T01:05:20.935Z,1017.1
2024-01-10T01:06:36.785Z,1017
2024-01-10T01:07:52.842Z,1017
2024-01-10T01:09:08.866Z,1016.9
2024-01-10T01:10:24.764Z,1016.9
2024-01-10T01:11:40.798Z,1016.9
2024-01-10T01:12:56.805Z,1016.9
2024-01-10T01:14:13.283Z,1016.9
2024-01-10T01:15:29.820Z,1016.9
2024-01-10T01:16:45.799Z,1016.9
2024-01-10T01:18:01.936Z,1016.9
2024-01-10T01:19:17.854Z,1017
2024-01-10T01:20:33.845Z,1017
2024-01-10T01:21:49.779Z,1017
2024-01-10T01:23:05.847Z,1017
2024-01-10T01:24:21.818Z,1017
2024-01-10T01:25:38.882Z,1016.9
2024-01-10T01:26:55.092Z,1016.9
2024-01-10T01:28:11.803Z,1016.9
2024-01-10T01:29:27.835Z,1016.9
2024-01-10T01:30:44.112Z,1017
2024-01-10T01:32:00.868Z,1016.9
2024-01-10T01:33:16.934Z,1016.9
2024-01-10T01:34:32.905Z,1016.9
2024-01-10T01:35:48.813Z,1016.9
2024-01-10T01:37:04.890Z,1016.9
2024-01-10T01:38:20.842Z,1016.9
2024-01-10T01:39:36.827Z,1016.9
2024-01-10T01:40:52.818Z,1016.9
2024-01-10T01:42:08.908Z,1016.9
2024-01-10T01:43:24.812Z,1017
2024-01-10T01:44:40.846Z,1017
2024-01-10T01:45:56.950Z,1017
2024-01-10T01:47:12.888Z,1017
2024-01-10T01:48:29.023Z,1017
2024-01-10T01:49:44.996Z,1017
2024-01-10T01:51:00.826Z,1017
2024-01-10T01:52:16.846Z,1017
2024-01-10T01:53:33.692Z,1017
2024-01-10T01:56:06.931Z,1016.9
2024-01-10T01:57:22.909Z,1016.9
2024-01-10T01:58:39.053Z,1016.9
2024-01-10T01:59:54.970Z,1016.9
2024-01-10T02:01:10.967Z,1016.9
2024-01-10T02:02:27.100Z,1016.8
2024-01-10T02:03:43.042Z,1016.8
2024-01-10T02:04:59.048Z,1016.8
2024-01-10T02:06:15.997Z,1016.8
2024-01-10T02:07:32.901Z,1016.8
2024-01-10T02:08:48.917Z,1016.8
2024-01-10T02:10:05.366Z,1016.8
2024-01-10T02:11:22.027Z,1016.8
2024-01-10T02:12:38.903Z,1016.8
2024-01-10T02:13:54.962Z,1016.7
2024-01-10T02:15:11.007Z,1016.7
2024-01-10T02:16:27.938Z,1016.8
2024-01-10T02:17:44.034Z,1016.8
2024-01-10T02:19:00.939Z,1016.8
2024-01-10T02:20:18.132Z,1016.8
2024-01-10T02:21:34.005Z,1016.7
2024-01-10T02:22:51.016Z,1016.7
2024-01-10T02:24:06.945Z,1016.7
2024-01-10T02:25:23.927Z,1016.7
2024-01-10T02:26:40.020Z,1016.7
2024-01-10T02:27:56.909Z,1016.7
2024-01-10T02:29:12.969Z,1016.7
2024-01-10T02:30:28.990Z,1016.6
2024-01-10T02:31:45.062Z,1016.6
2024-01-10T02:33:01.049Z,1016.6
2024-01-10T02:34:17.018Z,1016.5
2024-01-10T02:35:32.945Z,1016.5
2024-01-10T02:36:49.025Z,1016.4
2024-01-10T02:38:04.972Z,1016.4
2024-01-10T02:39:20.980Z,1016.4
2024-01-10T02:40:36.963Z,1016.4
2024-01-10T02:41:52.958Z,1016.4
2024-01-10T02:43:09.001Z,1016.4
2024-01-10T02:44:25.121Z,1016.4
2024-01-10T02:45:41.021Z,1016.3
2024-01-10T02:46:57.054Z,1016.3
2024-01-10T02:48:13.005Z,1016.3
2024-01-10T02:49:30.038Z,1016.3
2024-01-10T02:50:47.344Z,1016.3
2024-01-10T02:52:04.540Z,1016.4
2024-01-10T02:53:21.005Z,1016.4
2024-01-10T02:54:38.065Z,1016.3
2024-01-10T02:55:54.024Z,1016.3
2024-01-10T02:57:11.038Z,1016.3
2024-01-10T02:58:27.972Z,1016.3
2024-01-10T02:59:45.042Z,1016.3
2024-01-10T03:01:01.992Z,1016.3
2024-01-10T03:02:18.123Z,1016.4
2024-01-10T03:03:34.046Z,1016.4
2024-01-10T03:04:50.036Z,1016.4
2024-01-10T03:06:07.409Z,1016.5
2024-01-10T03:07:23.997Z,1016.5
2024-01-10T03:08:39.986Z,1016.5
2024-01-10T03:09:56.987Z,1016.5
2024-01-10T03:11:14.009Z,1016.5
2024-01-10T03:12:31.047Z,1016.5
2024-01-10T03:13:48.071Z,1016.5
2024-01-10T03:15:04.951Z,1016.5
2024-01-10T03:16:21.002Z,1016.4
2024-01-10T03:17:37.204Z,1016.5
2024-01-10T03:18:54.366Z,1016.5
2024-01-10T03:20:10.973Z,1016.5
2024-01-10T03:21:27.023Z,1016.5
2024-01-10T03:22:42.968Z,1016.5
2024-01-10T03:23:58.933Z,1016.4
2024-01-10T03:25:14.967Z,1016.4
2024-01-10T03:26:31.572Z,1016.3
2024-01-10T03:27:48.451Z,1016.4
2024-01-10T03:29:04.975Z,1016.3
2024-01-10T03:30:21.052Z,1016.3
2024-01-10T03:31:36.929Z,1016.3
2024-01-10T03:32:53.038Z,1016.3
2024-01-10T03:34:09.027Z,1016.4
2024-01-10T03:35:25.051Z,1016.3
2024-01-10T03:36:40.988Z,1016.4
2024-01-10T03:37:56.974Z,1016.4
2024-01-10T03:39:12.938Z,1016.4
2024-01-10T03:40:28.951Z,1016.4
2024-01-10T03:41:44.987Z,1016.4
2024-01-10T03:43:01.006Z,1016.4
2024-01-10T03:44:17.021Z,1016.3
2024-01-10T03:45:33.047Z,1016.4
2024-01-10T03:46:49.005Z,1016.4
2024-01-10T03:48:05.045Z,1016.4
2024-01-10T03:49:21.149Z,1016.4
2024-01-10T03:50:36.981Z,1016.3
2024-01-10T03:51:52.969Z,1016.3
2024-01-10T03:53:09.011Z,1016.3
2024-01-10T03:54:24.953Z,1016.3
2024-01-10T03:55:40.992Z,1016.3
2024-01-10T03:56:56.954Z,1016.2
2024-01-10T03:58:13.032Z,1016.2
2024-01-10T03:59:28.961Z,1016.2
2024-01-10T04:00:45.008Z,1016.2
2024-01-10T04:02:01.025Z,1016.2
2024-01-10T04:03:17.043Z,1016.2
2024-01-10T04:04:33.015Z,1016.3
2024-01-10T04:05:49.119Z,1016.3
2024-01-10T04:07:04.976Z,1016.3
2024-01-10T04:08:21.002Z,1016.2
2024-01-10T04:09:37.006Z,1016.2
2024-01-10T04:10:53.045Z,1016.3
2024-01-10T04:12:09.000Z,1016.2
2024-01-10T04:13:24.991Z,1016.2
2024-01-10T04:14:41.049Z,1016.2
2024-01-10T04:15:57.087Z,1016.2
2024-01-10T04:17:13.055Z,1016.2
2024-01-10T04:18:29.681Z,1016.2
2024-01-10T04:19:46.114Z,1016.2
2024-01-10T04:21:02.094Z,1016.2
2024-01-10T04:22:17.966Z,1016.2
2024-01-10T04:23:33.982Z,1016.2
2024-01-10T04:24:50.018Z,1016.2
2024-01-10T04:26:06.073Z,1016.2
2024-01-10T04:27:22.022Z,1016.2
2024-01-10T04:28:38.041Z,1016.2
2024-01-10T04:29:54.043Z,1016.2
2024-01-10T04:31:10.118Z,1016.1
2024-01-10T04:32:26.251Z,1016.1
2024-01-10T04:33:42.063Z,1016.1
2024-01-10T04:34:58.057Z,1016.2
2024-01-10T04:36:14.020Z,1016.2
2024-01-10T04:37:30.016Z,1016.2
2024-01-10T04:38:46.052Z,1016.2
2024-01-10T04:40:02.088Z,1016.2
2024-01-10T04:41:18.139Z,1016.2
2024-01-10T04:42:34.035Z,1016.2
2024-01-10T04:43:50.030Z,1016.1
2024-01-10T04:45:06.056Z,1016.1
2024-01-10T04:46:22.453Z,1016
2024-01-10T04:47:39.401Z,1016
2024-01-10T04:48:56.250Z,1016
2024-01-10T04:50:14.015Z,1016
2024-01-10T04:51:28.035Z,1016
2024-01-10T04:52:44.112Z,1016
2024-01-10T04:54:00.057Z,1016
2024-01-10T04:55:16.041Z,1016
2024-01-10T04:56:32.117Z,1016
2024-01-10T04:57:48.172Z,1016.1
2024-01-10T04:59:04.095Z,1016.1
2024-01-10T05:00:20.052Z,1016.1
2024-01-10T05:01:36.207Z,1016.2
2024-01-10T05:02:54.642Z,1016.1
2024-01-10T05:04:08.094Z,1016.1
2024-01-10T05:05:24.104Z,1016.2
2024-01-10T05:06:40.048Z,1016.2
2024-01-10T05:07:56.109Z,1016.2
2024-01-10T05:09:12.087Z,1016.2
2024-01-10T05:10:28.053Z,1016.2
2024-01-10T05:11:44.948Z,1016.2
2024-01-10T05:13:00.066Z,1016.2
2024-01-10T05:14:16.099Z,1016.3
2024-01-10T05:15:32.106Z,1016.2
2024-01-10T05:16:48.118Z,1016.3
2024-01-10T05:18:04.201Z,1016.3
2024-01-10T05:19:20.095Z,1016.3
2024-01-10T05:20:36.111Z,1016.3
2024-01-10T05:21:52.058Z,1016.3
2024-01-10T05:23:08.116Z,1016.3
2024-01-10T05:24:24.042Z,1016.3
2024-01-10T05:25:40.265Z,1016.3
2024-01-10T05:26:56.072Z,1016.3
2024-01-10T05:28:12.073Z,1016.2
2024-01-10T05:29:28.129Z,1016.2
2024-01-10T05:30:44.152Z,1016.3
2024-01-10T05:32:00.206Z,1016.2
2024-01-10T05:33:16.115Z,1016.2
2024-01-10T05:34:32.108Z,1016.2
2024-01-10T05:35:48.146Z,1016.2
2024-01-10T05:37:04.503Z,1016.1
2024-01-10T05:38:21.133Z,1016.1
2024-01-10T05:39:37.078Z,1016.1
2024-01-10T05:40:53.697Z,1016.1
2024-01-10T05:42:10.114Z,1016.1
2024-01-10T05:43:26.923Z,1016.1
2024-01-10T05:44:43.160Z,1016.2
2024-01-10T05:45:59.153Z,1016.2
2024-01-10T05:47:15.124Z,1016.1
2024-01-10T05:48:31.147Z,1016.1
2024-01-10T05:49:47.227Z,1016.1
2024-01-10T05:51:03.988Z,1016.1
2024-01-10T05:52:21.472Z,1016.1
2024-01-10T05:53:38.200Z,1016.1
2024-01-10T05:54:54.195Z,1016.1
2024-01-10T05:56:12.135Z,1016
2024-01-10T05:57:29.238Z,1016
2024-01-10T05:58:46.220Z,1016
2024-01-10T06:00:03.253Z,1016
2024-01-10T06:01:20.186Z,1016
2024-01-10T06:02:36.577Z,1016
2024-01-10T06:03:53.209Z,1016.1
2024-01-10T06:05:09.167Z,1016.1
2024-01-10T06:06:25.194Z,1016.1
2024-01-10T06:07:41.113Z,1016.1
2024-01-10T06:08:57.162Z,1016.1
2024-01-10T06:10:13.133Z,1016.1
2024-01-10T06:11:29.177Z,1016.2
2024-01-10T06:12:45.109Z,1016.2
2024-01-10T06:14:01.231Z,1016.2
2024-01-10T06:15:17.139Z,1016.2
2024-01-10T06:16:33.151Z,1016.2
2024-01-10T06:17:49.188Z,1016.2
2024-01-10T06:19:05.307Z,1016.2
2024-01-10T06:20:21.267Z,1016.2
2024-01-10T06:21:37.120Z,1016.2
2024-01-10T06:22:53.125Z,1016.2
2024-01-10T06:24:09.204Z,1016.2
2024-01-10T06:25:25.175Z,1016.3
2024-01-10T06:26:41.082Z,1016.3
2024-01-10T06:27:57.166Z,1016.2
2024-01-10T06:29:13.971Z,1016.3
2024-01-10T06:30:30.175Z,1016.3
2024-01-10T06:31:46.253Z,1016.3
2024-01-10T06:33:03.676Z,1016.3
2024-01-10T06:34:20.733Z,1016.2
2024-01-10T06:35:37.204Z,1016.2
2024-01-10T06:36:53.151Z,1016.2
2024-01-10T06:38:09.210Z,1016.2
2024-01-10T06:39:25.175Z,1016.2
2024-01-10T06:40:41.150Z,1016.2
2024-01-10T06:41:57.121Z,1016.2
2024-01-10T06:43:13.713Z,1016.1
2024-01-10T06:44:30.717Z,1016.1
2024-01-10T06:45:47.173Z,1016
2024-01-10T06:47:03.205Z,1016
2024-01-10T06:48:19.170Z,1016
2024-01-10T06:49:35.308Z,1016
2024-01-10T06:50:51.208Z,1015.9
2024-01-10T06:52:07.126Z,1015.9
2024-01-10T06:53:23.244Z,1015.9
2024-01-10T06:54:39.205Z,1016
2024-01-10T06:55:55.229Z,1016
2024-01-10T06:57:11.216Z,1016
2024-01-10T06:58:27.696Z,1016
2024-01-10T06:59:44.848Z,1016
2024-01-10T07:01:01.261Z,1016
2024-01-10T07:02:17.187Z,1015.9
2024-01-10T07:03:33.227Z,1015.9
2024-01-10T07:04:49.282Z,1015.8
2024-01-10T07:06:05.432Z,1015.7
2024-01-10T07:07:21.192Z,1015.8
2024-01-10T07:08:37.181Z,1015.7
2024-01-10T07:09:53.285Z,1015.7
2024-01-10T07:11:09.206Z,1015.7
2024-01-10T07:12:25.179Z,1015.7
2024-01-10T07:13:41.181Z,1015.7
2024-01-10T07:14:57.189Z,1015.6
2024-01-10T07:16:13.213Z,1015.6
2024-01-10T07:17:29.242Z,1015.6
2024-01-10T07:18:45.283Z,1015.5
2024-01-10T07:20:01.341Z,1015.4
2024-01-10T07:21:17.278Z,1015.4
2024-01-10T07:22:33.216Z,1015.4
2024-01-10T07:23:49.225Z,1015.3
2024-01-10T07:25:06.565Z,1015.3
2024-01-10T07:26:21.652Z,1015.2
2024-01-10T07:27:38.209Z,1015.2
2024-01-10T07:28:54.267Z,1015.2
2024-01-10T07:30:10.293Z,1015.2
2024-01-10T07:31:26.202Z,1015.2
2024-01-10T07:32:42.379Z,1015.3
2024-01-10T07:33:58.785Z,1015.3
2024-01-10T07:35:15.307Z,1015.3
2024-01-10T07:36:31.266Z,1015.3
2024-01-10T07:37:47.320Z,1015.3
2024-01-10T07:39:04.349Z,1015.3
2024-01-10T07:40:19.214Z,1015.3
2024-01-10T07:41:35.272Z,1015.3
2024-01-10T07:42:51.234Z,1015.3
2024-01-10T07:44:07.275Z,1015.3
2024-01-10T07:45:23.224Z,1015.3
2024-01-10T07:46:39.291Z,1015.3
2024-01-10T07:47:55.310Z,1015.3
2024-01-10T07:49:11.252Z,1015.3
2024-01-10T07:50:27.251Z,1015.4
2024-01-10T07:51:43.300Z,1015.4
2024-01-10T07:52:59.265Z,1015.4
2024-01-10T07:54:15.233Z,1015.5
2024-01-10T07:55:31.240Z,1015.4
2024-01-10T07:56:47.455Z,1015.5
2024-01-10T07:58:03.304Z,1015.5
2024-01-10T07:59:19.309Z,1015.5
2024-01-10T08:00:35.251Z,1015.6
2024-01-10T08:01:51.338Z,1015.6
2024-01-10T08:03:07.327Z,1015.6
2024-01-10T08:04:23.232Z,1015.6
2024-01-10T08:05:39.317Z,1015.6
2024-01-10T08:06:55.379Z,1015.6
2024-01-10T08:08:11.285Z,1015.7
2024-01-10T08:09:27.260Z,1015.6
2024-01-10T08:10:43.283Z,1015.6
2024-01-10T08:11:59.285Z,1015.6
2024-01-10T08:13:15.270Z,1015.7
2024-01-10T08:14:31.276Z,1015.7
2024-01-10T08:15:47.298Z,1015.7
2024-01-10T08:17:03.287Z,1015.6
2024-01-10T08:18:19.320Z,1015.7
2024-01-10T08:19:35.297Z,1015.7
2024-01-10T08:20:51.288Z,1015.7
2024-01-10T08:22:07.357Z,1015.8
2024-01-10T08:23:23.320Z,1015.8
2024-01-10T08:24:39.302Z,1015.8
2024-01-10T08:25:55.286Z,1015.7
2024-01-10T08:27:11.303Z,1015.8
2024-01-10T08:28:27.753Z,1015.8
2024-01-10T08:29:44.716Z,1015.8
2024-01-10T08:31:03.942Z,1015.8
2024-01-10T08:32:17.341Z,1015.8
2024-01-10T08:33:33.455Z,1015.8
2024-01-10T08:34:49.315Z,1015.9
2024-01-10T08:36:05.276Z,1015.9
2024-01-10T08:37:21.309Z,1015.8
2024-01-10T08:38:37.330Z,1015.9
2024-01-10T08:39:53.293Z,1015.9
2024-01-10T08:41:09.304Z,1015.8
2024-01-10T08:42:25.310Z,1015.8
2024-01-10T08:43:41.334Z,1015.8
2024-01-10T08:44:57.307Z,1015.7
2024-01-10T08:46:13.387Z,1015.6
2024-01-10T08:47:29.513Z,1015.6
2024-01-10T08:48:45.475Z,1015.6
2024-01-10T08:50:01.318Z,1015.6
2024-01-10T08:51:17.312Z,1015.6
2024-01-10T08:52:33.360Z,1015.6
2024-01-10T08:53:49.290Z,1015.6
2024-01-10T08:55:05.354Z,1015.7
2024-01-10T08:56:21.443Z,1015.7
2024-01-10T08:57:37.363Z,1015.8
2024-01-10T08:58:53.352Z,1015.8
2024-01-10T09:00:09.339Z,1015.7
2024-01-10T09:01:25.417Z,1015.7
2024-01-10T09:02:41.386Z,1015.8
2024-01-10T09:03:57.306Z,1015.8
2024-01-10T09:05:13.375Z,1015.7
2024-01-10T09:06:29.371Z,1015.7
2024-01-10T09:07:45.348Z,1015.6
2024-01-10T09:09:01.363Z,1015.6
2024-01-10T09:10:17.313Z,1015.6
2024-01-10T09:11:34.982Z,1015.6
2024-01-10T09:12:49.318Z,1015.6
2024-01-10T09:14:05.429Z,1015.6
2024-01-10T09:15:21.340Z,1015.6
2024-01-10T09:16:37.322Z,1015.8
2024-01-10T09:17:53.514Z,1015.7
2024-01-10T09:19:11.015Z,1015.8
2024-01-10T09:20:25.806Z,1015.7
2024-01-10T09:21:42.324Z,1015.7
2024-01-10T09:22:58.389Z,1015.7
2024-01-10T09:24:21.394Z,1015.7
2024-01-10T09:25:30.324Z,1015.6
2024-01-10T09:26:46.389Z,1015.7
2024-01-10T09:28:02.352Z,1015.7
2024-01-10T09:29:18.371Z,1015.7
2024-01-10T09:30:34.402Z,1015.7
2024-01-10T09:31:50.432Z,1015.7
2024-01-10T09:33:06.672Z,1015.7
2024-01-10T09:34:23.400Z,1015.8
2024-01-10T09:35:39.412Z,1015.8
2024-01-10T09:36:55.398Z,1015.8
2024-01-10T09:38:11.733Z,1015.9
2024-01-10T09:39:28.349Z,1015.9
2024-01-10T09:40:44.394Z,1015.9
2024-01-10T09:42:00.420Z,1015.9
2024-01-10T09:43:16.633Z,1015.8
2024-01-10T09:44:33.409Z,1015.7
2024-01-10T09:45:49.392Z,1015.7
2024-01-10T09:47:05.437Z,1015.6
2024-01-10T09:49:37.782Z,1015.7
2024-01-10T09:50:54.370Z,1015.7
2024-01-10T09:52:10.419Z,1015.7
2024-01-10T09:53:26.481Z,1015.6
2024-01-10T09:54:42.432Z,1015.6
2024-01-10T09:55:58.486Z,1015.6
2024-01-10T09:57:14.378Z,1015.6
2024-01-10T09:58:30.451Z,1015.6
2024-01-10T09:59:46.404Z,1015.6
2024-01-10T10:01:02.375Z,1015.7
2024-01-10T10:02:18.441Z,1015.7
2024-01-10T10:03:34.487Z,1015.8
2024-01-10T10:04:53.215Z,1015.8
2024-01-10T10:06:06.483Z,1015.8
2024-01-10T10:07:22.483Z,1015.8
2024-01-10T10:08:38.478Z,1015.7
2024-01-10T10:09:54.355Z,1015.8
2024-01-10T10:11:10.439Z,1015.8
2024-01-10T10:12:26.430Z,1015.9
2024-01-10T10:13:42.432Z,1015.9
2024-01-10T10:14:58.412Z,1015.9
2024-01-10T10:16:14.667Z,1015.8
2024-01-10T10:17:30.675Z,1015.7
2024-01-10T10:18:49.566Z,1015.7
2024-01-10T10:20:02.496Z,1015.7
2024-01-10T10:21:18.640Z,1015.7
2024-01-10T10:22:34.426Z,1015.7
2024-01-10T10:23:50.505Z,1015.7
2024-01-10T10:25:06.461Z,1015.8
2024-01-10T10:26:22.726Z,1015.8
2024-01-10T10:27:38.420Z,1015.8
2024-01-10T10:28:54.476Z,1015.8
2024-01-10T10:30:10.515Z,1015.8
2024-01-10T10:31:26.453Z,1015.8
2024-01-10T10:32:42.505Z,1015.8
2024-01-10T10:33:58.500Z,1015.8
2024-01-10T10:35:21.780Z,1015.8
2024-01-10T10:36:30.936Z,1015.8
2024-01-10T10:37:47.475Z,1015.9
2024-01-10T10:39:03.474Z,1015.9
2024-01-10T10:40:19.428Z,1016
2024-01-10T10:41:35.853Z,1016
2024-01-10T10:42:52.461Z,1015.9
2024-01-10T10:44:08.534Z,1015.9
2024-01-10T10:45:24.437Z,1015.9
2024-01-10T10:46:40.661Z,1015.9
2024-01-10T10:47:56.500Z,1015.8
2024-01-10T10:49:12.653Z,1015.8
2024-01-10T10:50:28.443Z,1015.8
2024-01-10T10:51:44.448Z,1015.8
2024-01-10T10:53:00.475Z,1015.7
2024-01-10T10:54:17.311Z,1015.8
2024-01-10T10:55:33.480Z,1015.8
2024-01-10T10:56:49.707Z,1015.8
2024-01-10T10:58:10.872Z,1015.9
2024-01-10T10:59:22.658Z,1015.9
2024-01-10T11:00:38.460Z,1015.9
2024-01-10T11:01:54.521Z,1015.9
2024-01-10T11:03:10.563Z,1015.8
2024-01-10T11:04:26.585Z,1015.8
2024-01-10T11:05:42.807Z,1015.8
2024-01-10T11:06:58.654Z,1015.9
2024-01-10T11:08:14.784Z,1015.9
2024-01-10T11:09:31.595Z,1016
2024-01-10T11:10:47.470Z,1015.9
2024-01-10T11:12:03.487Z,1016
2024-01-10T11:13:19.549Z,1016
2024-01-10T11:14:35.588Z,1015.9
2024-01-10T11:15:51.450Z,1015.9
2024-01-10T11:17:07.567Z,1015.8
2024-01-10T11:18:23.553Z,1015.7
2024-01-10T11:19:39.588Z,1015.7
2024-01-10T11:20:55.496Z,1015.7
2024-01-10T11:22:11.525Z,1015.7
2024-01-10T11:23:27.578Z,1015.7
2024-01-10T11:24:43.612Z,1015.6
2024-01-10T11:25:59.666Z,1015.7
2024-01-10T11:27:15.510Z,1015.7
2024-01-10T11:28:31.506Z,1015.7
2024-01-10T11:29:47.619Z,1015.7
2024-01-10T11:31:04.326Z,1015.7
2024-01-10T11:32:20.607Z,1015.7
2024-01-10T11:33:39.186Z,1015.7
2024-01-10T11:34:55.698Z,1015.7
2024-01-10T11:36:11.724Z,1015.7
2024-01-10T11:37:27.533Z,1015.7
2024-01-10T11:38:43.548Z,1015.7
2024-01-10T11:39:59.542Z,1015.7
2024-01-10T11:41:15.519Z,1015.7
2024-01-10T11:42:31.596Z,1015.7
2024-01-10T11:43:47.518Z,1015.7
2024-01-10T11:45:03.480Z,1015.5
2024-01-10T11:46:21.121Z,1015.5
2024-01-10T11:47:35.655Z,1015.5
2024-01-10T11:48:51.597Z,1015.6
2024-01-10T11:50:07.534Z,1015.6
2024-01-10T11:51:23.640Z,1015.5
2024-01-10T11:52:39.530Z,1015.5
2024-01-10T11:53:55.539Z,1015.5
2024-01-10T11:55:11.591Z,1015.5
2024-01-10T11:56:33.448Z,1015.5
2024-01-10T11:57:43.539Z,1015.4
2024-01-10T11:58:59.542Z,1015.4
2024-01-10T12:00:15.589Z,1015.4
2024-01-10T12:01:31.539Z,1015.4
2024-01-10T12:02:47.830Z,1015.4
2024-01-10T12:04:10.360Z,1015.3
2024-01-10T12:05:20.690Z,1015.3
2024-01-10T12:06:36.704Z,1015.3
2024-01-10T12:07:52.642Z,1015.3
2024-01-10T12:09:08.544Z,1015.3
2024-01-10T12:10:24.559Z,1015.3
2024-01-10T12:11:40.552Z,1015.3
2024-01-10T12:12:56.584Z,1015.3
2024-01-10T12:14:12.574Z,1015.3
2024-01-10T12:15:28.554Z,1015.3
2024-01-10T12:16:44.645Z,1015.3
2024-01-10T12:18:00.637Z,1015.2
2024-01-10T12:19:16.741Z,1015.2
2024-01-10T12:20:32.829Z,1015.1
2024-01-10T12:21:49.579Z,1015.2
2024-01-10T12:23:05.580Z,1015.2
2024-01-10T12:24:21.600Z,1015.1
2024-01-10T12:25:37.578Z,1015.1
2024-01-10T12:26:54.642Z,1015.1
2024-01-10T12:28:10.598Z,1015.2
2024-01-10T12:29:26.624Z,1015.1
2024-01-10T12:30:42.581Z,1015.1
2024-01-10T12:31:58.672Z,1015.1
2024-01-10T12:33:14.647Z,1015.1
2024-01-10T12:34:30.585Z,1015.1
2024-01-10T12:35:46.721Z,1015.1
2024-01-10T12:37:03.624Z,1015.1
2024-01-10T12:38:19.598Z,1015.1
2024-01-10T12:39:35.607Z,1015.1
2024-01-10T12:40:51.690Z,1015.1
2024-01-10T12:42:07.615Z,1015
2024-01-10T12:43:23.693Z,1015
2024-01-10T12:44:39.612Z,1015
2024-01-10T12:45:55.641Z,1015
2024-01-10T12:47:11.668Z,1014.9
2024-01-10T12:48:27.705Z,1015
2024-01-10T12:49:43.609Z,1015.1
2024-01-10T12:50:59.650Z,1015.1
2024-01-10T12:52:17.835Z,1015.1
2024-01-10T12:53:31.741Z,1015.1
2024-01-10T12:54:47.611Z,1015
2024-01-10T12:56:03.629Z,1015
2024-01-10T12:57:19.732Z,1015
2024-01-10T12:58:35.611Z,1015
2024-01-10T12:59:51.605Z,1014.9
2024-01-10T13:01:07.669Z,1014.9
2024-01-10T13:02:23.693Z,1015
2024-01-10T13:03:39.668Z,1015
2024-01-10T13:04:55.661Z,1015
2024-01-10T13:06:11.657Z,1015
2024-01-10T13:07:27.618Z,1015
2024-01-10T13:08:43.784Z,1015
2024-01-10T13:09:59.685Z,1015
2024-01-10T13:11:15.716Z,1015.1
2024-01-10T13:12:31.640Z,1015.1
2024-01-10T13:13:47.668Z,1015.1
2024-01-10T13:15:03.670Z,1015.1
2024-01-10T13:16:19.616Z,1015
2024-01-10T13:17:35.694Z,1015
2024-01-10T13:18:52.062Z,1015.1
2024-01-10T13:20:08.722Z,1015
2024-01-10T13:21:24.619Z,1015
2024-01-10T13:22:40.718Z,1015
2024-01-10T13:23:56.659Z,1015
2024-01-10T13:25:12.661Z,1015
2024-01-10T13:26:28.764Z,1014.9
2024-01-10T13:27:44.641Z,1014.9
2024-01-10T13:29:00.735Z,1014.9
2024-01-10T13:30:16.708Z,1014.9
2024-01-10T13:31:32.653Z,1014.9
2024-01-10T13:32:48.711Z,1014.9
2024-01-10T13:34:04.846Z,1014.8
2024-01-10T13:35:20.706Z,1014.8
2024-01-10T13:36:36.627Z,1014.7
2024-01-10T13:37:52.639Z,1014.7
2024-01-10T13:39:08.872Z,1014.8
2024-01-10T13:40:24.653Z,1014.8
2024-01-10T13:41:40.680Z,1014.8
2024-01-10T13:42:56.625Z,1014.9
2024-01-10T13:44:12.712Z,1014.9
2024-01-10T13:45:43.722Z,1014.9
2024-01-10T13:46:59.682Z,1014.9
2024-01-10T13:48:15.679Z,1014.9
2024-01-10T13:49:31.702Z,1014.9
2024-01-10T13:50:47.687Z,1014.9
2024-01-10T13:52:03.687Z,1014.9
2024-01-10T13:53:19.992Z,1014.8
2024-01-10T13:54:36.668Z,1014.8
2024-01-10T13:55:52.707Z,1014.8
2024-01-10T13:57:08.839Z,1014.9
2024-01-10T13:58:24.778Z,1014.8
2024-01-10T13:59:40.729Z,1014.8
2024-01-10T14:00:56.752Z,1014.8
2024-01-10T14:02:12.792Z,1014.8
2024-01-10T14:03:31.279Z,1014.8
2024-01-10T14:04:44.744Z,1014.8
2024-01-10T14:06:00.795Z,1014.8
2024-01-10T14:07:16.810Z,1014.8
2024-01-10T14:08:32.658Z,1014.9
2024-01-10T14:09:48.764Z,1014.9
2024-01-10T14:11:05.733Z,1014.8
2024-01-10T14:12:21.828Z,1014.8
2024-01-10T14:13:37.692Z,1014.9
2024-01-10T14:14:53.786Z,1014.9
2024-01-10T14:16:09.781Z,1014.9
2024-01-10T14:17:25.873Z,1014.9
2024-01-10T14:18:41.806Z,1014.8
2024-01-10T14:19:57.749Z,1014.8
2024-01-10T14:21:13.758Z,1014.8
2024-01-10T14:22:31.552Z,1014.9
2024-01-10T14:23:45.762Z,1014.9
2024-01-10T14:25:02.520Z,1014.9
2024-01-10T14:26:17.777Z,1014.9
2024-01-10T14:27:33.789Z,1014.8
2024-01-10T14:28:49.738Z,1014.8
2024-01-10T14:30:05.773Z,1014.9
2024-01-10T14:31:26.484Z,1014.8
2024-01-10T14:32:39.110Z,1014.9
2024-01-10T14:33:54.842Z,1015
2024-01-10T14:35:11.186Z,1014.9
2024-01-10T14:36:27.038Z,1014.9
2024-01-10T14:37:42.757Z,1014.9
2024-01-10T14:38:58.753Z,1014.9
2024-01-10T14:40:14.735Z,1014.9
2024-01-10T14:41:30.751Z,1014.8
2024-01-10T14:42:46.859Z,1014.8
2024-01-10T14:44:02.770Z,1014.8
2024-01-10T14:45:18.764Z,1014.9
2024-01-10T14:46:34.735Z,1014.9
2024-01-10T14:47:50.976Z,1014.9
2024-01-10T14:49:06.777Z,1014.9
2024-01-10T14:50:22.850Z,1014.9
2024-01-10T14:51:38.730Z,1014.9
2024-01-10T14:52:54.931Z,1014.8
2024-01-10T14:54:10.828Z,1014.9
2024-01-10T14:55:26.786Z,1014.8
2024-01-10T14:56:43.832Z,1014.9
2024-01-10T14:57:58.790Z,1014.8
2024-01-10T14:59:14.952Z,1014.8
2024-01-10T15:00:30.834Z,1014.8
2024-01-10T15:01:46.863Z,1014.8
2024-01-10T15:03:04.350Z,1014.8
2024-01-10T15:04:18.981Z,1014.8
2024-01-10T15:05:35.318Z,1014.8
2024-01-10T15:06:51.915Z,1014.8
2024-01-10T15:08:07.798Z,1014.8
2024-01-10T15:09:23.798Z,1014.8
2024-01-10T15:10:39.764Z,1014.7
2024-01-10T15:11:55.764Z,1014.7
2024-01-10T15:13:11.801Z,1014.7
2024-01-10T15:14:27.843Z,1014.7
2024-01-10T15:15:43.749Z,1014.7
2024-01-10T15:16:59.826Z,1014.6
2024-01-10T15:18:15.816Z,1014.7
2024-01-10T15:19:31.928Z,1014.7
2024-01-10T15:20:47.761Z,1014.7
2024-01-10T15:22:03.863Z,1014.7
2024-01-10T15:23:19.807Z,1014.7
2024-01-10T15:24:35.800Z,1014.7
2024-01-10T15:25:51.877Z,1014.7
2024-01-10T15:27:07.851Z,1014.7
2024-01-10T15:28:23.780Z,1014.8
2024-01-10T15:29:39.949Z,1014.8
2024-01-10T15:30:55.906Z,1014.7
2024-01-10T15:32:11.870Z,1014.7
2024-01-10T15:33:27.883Z,1014.7
2024-01-10T15:34:43.930Z,1014.7
2024-01-10T15:35:59.800Z,1014.7
2024-01-10T15:37:15.778Z,1014.7
2024-01-10T15:38:31.830Z,1014.7
2024-01-10T15:39:47.956Z,1014.7
2024-01-10T15:41:03.968Z,1014.6
2024-01-10T15:42:19.875Z,1014.6
2024-01-10T15:43:36.006Z,1014.6
2024-01-10T15:44:51.848Z,1014.6
2024-01-10T15:46:07.882Z,1014.6
2024-01-10T15:47:23.964Z,1014.6
2024-01-10T15:48:39.865Z,1014.6
2024-01-10T15:49:55.826Z,1014.6
2024-01-10T15:51:11.846Z,1014.7
2024-01-10T15:52:27.849Z,1014.7
2024-01-10T15:53:43.947Z,1014.6
2024-01-10T15:54:59.869Z,1014.7
2024-01-10T15:56:15.909Z,1014.7
2024-01-10T15:57:31.854Z,1014.6
2024-01-10T15:58:47.890Z,1014.6